createdAt,value
2022-07-30T00:00:41.842Z,0
2022-07-30T00:01:58.040Z,0
2022-07-30T00:03:14.464Z,0
2022-07-30T00:04:30.414Z,0
2022-07-30T00:05:46.840Z,0
2022-07-30T00:07:03.021Z,0
2022-07-30T00:08:19.216Z,0
2022-07-30T00:09:35.399Z,0
2022-07-30T00:10:51.573Z,0
2022-07-30T00:12:07.766Z,0
2022-07-30T00:13:23.732Z,0
2022-07-30T00:14:39.901Z,0
2022-07-30T00:15:55.344Z,0
2022-07-30T00:17:11.299Z,0
2022-07-30T00:18:27.731Z,0
2022-07-30T00:19:43.666Z,0
2022-07-30T00:21:00.091Z,0
2022-07-30T00:22:16.039Z,0
2022-07-30T00:23:32.474Z,0
2022-07-30T00:24:48.413Z,0
2022-07-30T00:26:04.607Z,0
2022-07-30T00:27:20.804Z,0
2022-07-30T00:28:37.220Z,0
2022-07-30T00:29:53.402Z,0
2022-07-30T00:31:09.600Z,0
2022-07-30T00:32:24.569Z,0
2022-07-30T00:33:40.984Z,0
2022-07-30T00:34:56.946Z,0
2022-07-30T00:36:13.363Z,0
2022-07-30T00:37:29.309Z,0
2022-07-30T00:38:45.728Z,0
2022-07-30T00:40:01.676Z,0
2022-07-30T00:41:18.102Z,0
2022-07-30T00:42:34.054Z,0
2022-07-30T00:43:50.475Z,0
2022-07-30T00:45:06.678Z,0
2022-07-30T00:46:22.851Z,0
2022-07-30T00:47:39.049Z,0
2022-07-30T00:48:54.259Z,0
2022-07-30T00:50:10.201Z,0
2022-07-30T00:51:26.628Z,0
2022-07-30T00:52:42.573Z,0
2022-07-30T00:53:58.994Z,0
2022-07-30T00:55:14.942Z,0
2022-07-30T00:56:31.378Z,0
2022-07-30T00:57:47.325Z,0
2022-07-30T00:59:03.750Z,0
2022-07-30T01:00:19.693Z,0
2022-07-30T01:01:36.132Z,0
2022-07-30T01:02:52.308Z,0
2022-07-30T01:04:08.260Z,0
2022-07-30T01:05:23.464Z,0
2022-07-30T01:06:39.635Z,0
2022-07-30T01:07:56.079Z,0
2022-07-30T01:09:12.258Z,0
2022-07-30T01:10:28.456Z,0
2022-07-30T01:11:44.633Z,0
2022-07-30T01:13:00.573Z,0
2022-07-30T01:14:16.765Z,0
2022-07-30T01:15:32.952Z,0
2022-07-30T01:16:49.147Z,0
2022-07-30T01:18:05.321Z,0
2022-07-30T01:19:21.519Z,0
2022-07-30T01:20:37.705Z,0
2022-07-30T01:21:53.162Z,0
2022-07-30T01:23:09.093Z,0
2022-07-30T01:24:25.526Z,0
2022-07-30T01:25:41.713Z,0
2022-07-30T01:26:57.647Z,0
2022-07-30T01:28:14.092Z,0
2022-07-30T01:29:30.022Z,0
2022-07-30T01:30:46.214Z,0
2022-07-30T01:32:02.646Z,0
2022-07-30T01:33:18.833Z,0
2022-07-30T01:34:35.025Z,0
2022-07-30T01:35:50.959Z,0
2022-07-30T01:37:07.410Z,0
2022-07-30T01:38:22.348Z,0
2022-07-30T01:39:38.788Z,0
2022-07-30T01:40:54.975Z,0
2022-07-30T01:42:10.909Z,0
2022-07-30T01:43:27.357Z,0
2022-07-30T01:44:43.543Z,0
2022-07-30T01:45:59.469Z,0
2022-07-30T01:47:15.911Z,0
2022-07-30T01:48:32.096Z,0
2022-07-30T01:49:48.298Z,0
2022-07-30T01:51:04.226Z,0
2022-07-30T01:52:20.667Z,0
2022-07-30T01:53:36.602Z,0
2022-07-30T01:54:52.051Z,0
2022-07-30T01:56:08.237Z,0
2022-07-30T01:57:24.174Z,0
2022-07-30T01:58:40.360Z,0
2022-07-30T01:59:56.797Z,0
2022-07-30T02:01:12.743Z,0
2022-07-30T02:02:29.175Z,0
2022-07-30T02:03:45.370Z,0
2022-07-30T02:05:01.560Z,0
2022-07-30T02:06:17.479Z,0
2022-07-30T02:07:33.928Z,0
2022-07-30T02:08:49.870Z,0
2022-07-30T02:10:06.298Z,0
2022-07-30T02:11:21.254Z,0
2022-07-30T02:12:37.690Z,0
2022-07-30T02:13:53.623Z,0
2022-07-30T02:15:10.076Z,0
2022-07-30T02:16:25.995Z,0
2022-07-30T02:17:42.449Z,0
2022-07-30T02:18:58.629Z,0
2022-07-30T02:20:14.814Z,0
2022-07-30T02:21:30.753Z,0
2022-07-30T02:22:47.185Z,0
2022-07-30T02:24:03.133Z,0
2022-07-30T02:25:19.561Z,0
2022-07-30T02:26:35.750Z,0
2022-07-30T02:27:50.953Z,0
2022-07-30T02:29:06.891Z,0
2022-07-30T02:30:23.330Z,0
2022-07-30T02:31:39.521Z,0
2022-07-30T02:32:55.439Z,0
2022-07-30T02:34:11.899Z,0
2022-07-30T02:35:28.093Z,0
2022-07-30T02:36:44.017Z,0
2022-07-30T02:38:00.455Z,0
2022-07-30T02:39:16.386Z,0
2022-07-30T02:40:32.823Z,0
2022-07-30T02:41:48.759Z,0
2022-07-30T02:43:05.208Z,0
2022-07-30T02:44:20.147Z,0
2022-07-30T02:45:36.328Z,0
2022-07-30T02:46:52.521Z,0
2022-07-30T02:48:08.963Z,0
2022-07-30T02:49:25.157Z,0
2022-07-30T02:50:41.355Z,0
2022-07-30T02:51:57.267Z,0
2022-07-30T02:53:13.721Z,0
2022-07-30T02:54:29.636Z,0
2022-07-30T02:55:46.105Z,0
2022-07-30T02:57:02.009Z,0
2022-07-30T02:58:18.213Z,4
2022-07-30T02:59:34.393Z,4
2022-07-30T03:00:49.871Z,4
2022-07-30T03:02:05.772Z,4
2022-07-30T03:03:22.241Z,4
2022-07-30T03:04:38.417Z,8
2022-07-30T03:05:54.336Z,4
2022-07-30T03:07:10.530Z,8
2022-07-30T03:08:26.012Z,8
2022-07-30T03:09:41.918Z,8
2022-07-30T03:10:58.122Z,8
2022-07-30T03:12:14.579Z,16
2022-07-30T03:13:30.758Z,16
2022-07-30T03:14:46.672Z,16
2022-07-30T03:16:03.140Z,20
2022-07-30T03:17:19.052Z,20
2022-07-30T03:18:35.231Z,24
2022-07-30T03:19:51.702Z,28
2022-07-30T03:21:07.875Z,28
2022-07-30T03:22:23.790Z,32
2022-07-30T03:23:40.253Z,36
2022-07-30T03:24:55.189Z,36
2022-07-30T03:26:11.370Z,40
2022-07-30T03:27:27.831Z,40
2022-07-30T03:28:44.026Z,44
2022-07-30T03:29:59.937Z,48
2022-07-30T03:31:16.404Z,48
2022-07-30T03:32:32.302Z,52
2022-07-30T03:33:48.777Z,52
2022-07-30T03:35:04.961Z,56
2022-07-30T03:36:20.864Z,60
2022-07-30T03:37:37.328Z,64
2022-07-30T03:38:53.526Z,68
2022-07-30T03:40:09.422Z,72
2022-07-30T03:41:24.911Z,76
2022-07-30T03:42:41.092Z,84
2022-07-30T03:43:57.294Z,84
2022-07-30T03:45:13.190Z,96
2022-07-30T03:46:29.656Z,104
2022-07-30T03:47:45.569Z,112
2022-07-30T03:49:01.747Z,128
2022-07-30T03:50:18.214Z,136
2022-07-30T03:51:34.419Z,148
2022-07-30T03:52:50.325Z,160
2022-07-30T03:54:06.788Z,172
2022-07-30T03:55:22.698Z,184
2022-07-30T03:56:39.165Z,200
2022-07-30T03:57:55.354Z,208
2022-07-30T03:59:10.560Z,212
2022-07-30T04:00:26.466Z,220
2022-07-30T04:01:42.638Z,228
2022-07-30T04:02:58.841Z,236
2022-07-30T04:04:15.303Z,244
2022-07-30T04:05:31.195Z,252
2022-07-30T04:06:47.665Z,264
2022-07-30T04:08:03.589Z,276
2022-07-30T04:09:19.774Z,288
2022-07-30T04:10:35.951Z,300
2022-07-30T04:11:52.429Z,312
2022-07-30T04:13:08.326Z,328
2022-07-30T04:14:24.516Z,348
2022-07-30T04:15:39.721Z,360
2022-07-30T04:16:56.197Z,372
2022-07-30T04:18:12.098Z,384
2022-07-30T04:19:28.567Z,404
2022-07-30T04:20:44.472Z,412
2022-07-30T04:22:00.933Z,428
2022-07-30T04:23:16.844Z,440
2022-07-30T04:24:33.314Z,464
2022-07-30T04:25:49.221Z,492
2022-07-30T04:27:05.684Z,520
2022-07-30T04:28:21.867Z,540
2022-07-30T04:29:38.057Z,556
2022-07-30T04:30:53.968Z,572
2022-07-30T04:32:09.456Z,588
2022-07-30T04:33:25.359Z,608
2022-07-30T04:34:41.000Z,624
2022-07-30T04:35:58.011Z,644
2022-07-30T04:37:14.197Z,680
2022-07-30T04:38:30.093Z,708
2022-07-30T04:39:46.296Z,736
2022-07-30T04:41:02.468Z,756
2022-07-30T04:42:18.661Z,780
2022-07-30T04:43:35.144Z,800
2022-07-30T04:44:51.331Z,808
2022-07-30T04:46:07.233Z,816
2022-07-30T04:47:23.702Z,824
2022-07-30T04:48:38.619Z,828
2022-07-30T04:49:55.086Z,828
2022-07-30T04:51:11.271Z,836
2022-07-30T04:52:27.176Z,848
2022-07-30T04:53:43.359Z,856
2022-07-30T04:54:59.837Z,868
2022-07-30T04:56:15.737Z,892
2022-07-30T04:57:32.206Z,916
2022-07-30T04:58:48.394Z,932
2022-07-30T05:00:04.302Z,948
2022-07-30T05:01:20.477Z,968
2022-07-30T05:02:36.969Z,988
2022-07-30T05:03:53.158Z,1008
2022-07-30T05:05:08.070Z,1028
2022-07-30T05:06:24.254Z,1036
2022-07-30T05:07:40.720Z,1028
2022-07-30T05:08:56.625Z,1012
2022-07-30T05:10:13.108Z,1024
2022-07-30T05:11:28.991Z,1068
2022-07-30T05:12:45.481Z,1120
2022-07-30T05:14:01.668Z,1188
2022-07-30T05:15:17.858Z,1260
2022-07-30T05:16:33.747Z,1312
2022-07-30T05:17:49.936Z,1328
2022-07-30T05:19:06.118Z,1324
2022-07-30T05:20:22.307Z,1308
2022-07-30T05:21:37.782Z,1288
2022-07-30T05:22:53.986Z,1276
2022-07-30T05:24:09.890Z,1276
2022-07-30T05:25:26.082Z,1292
2022-07-30T05:26:42.259Z,1328
2022-07-30T05:27:58.438Z,1368
2022-07-30T05:29:14.923Z,1404
2022-07-30T05:30:30.819Z,1436
2022-07-30T05:31:47.005Z,1488
2022-07-30T05:33:03.485Z,1556
2022-07-30T05:34:19.378Z,1616
2022-07-30T05:35:35.851Z,1664
2022-07-30T05:36:52.045Z,1704
2022-07-30T05:38:07.249Z,1740
2022-07-30T05:39:23.154Z,1784
2022-07-30T05:40:39.616Z,1824
2022-07-30T05:41:55.515Z,1860
2022-07-30T05:43:11.703Z,1888
2022-07-30T05:44:27.903Z,1904
2022-07-30T05:45:44.370Z,1916
2022-07-30T05:47:00.276Z,1932
2022-07-30T05:48:16.731Z,1944
2022-07-30T05:49:32.635Z,1952
2022-07-30T05:50:49.121Z,1956
2022-07-30T05:52:05.306Z,1944
2022-07-30T05:53:21.493Z,1928
2022-07-30T05:54:36.675Z,1908
2022-07-30T05:55:52.868Z,1880
2022-07-30T05:57:09.043Z,1856
2022-07-30T05:58:25.248Z,1824
2022-07-30T05:59:41.435Z,1796
2022-07-30T06:00:57.628Z,1752
2022-07-30T06:02:13.793Z,1708
2022-07-30T06:03:30.009Z,1656
2022-07-30T06:04:46.172Z,1612
2022-07-30T06:06:02.390Z,1568
2022-07-30T06:07:18.565Z,1528
2022-07-30T06:08:34.750Z,1512
2022-07-30T06:09:50.926Z,1528
2022-07-30T06:11:06.154Z,1552
2022-07-30T06:12:22.336Z,1584
2022-07-30T06:13:38.522Z,1616
2022-07-30T06:14:54.704Z,1660
2022-07-30T06:16:10.901Z,1676
2022-07-30T06:17:27.052Z,1720
2022-07-30T06:18:43.236Z,1796
2022-07-30T06:19:59.440Z,1896
2022-07-30T06:21:15.644Z,1940
2022-07-30T06:22:31.823Z,1936
2022-07-30T06:23:48.003Z,1904
2022-07-30T06:25:04.178Z,1848
2022-07-30T06:26:20.390Z,1788
2022-07-30T06:27:35.585Z,1716
2022-07-30T06:28:51.795Z,1660
2022-07-30T06:30:07.968Z,1644
2022-07-30T06:31:24.161Z,1700
2022-07-30T06:32:40.339Z,1804
2022-07-30T06:33:56.543Z,1916
2022-07-30T06:35:12.700Z,2028
2022-07-30T06:36:28.923Z,2148
2022-07-30T06:37:45.111Z,2244
2022-07-30T06:39:01.309Z,2356
2022-07-30T06:40:17.468Z,2484
2022-07-30T06:41:33.680Z,2588
2022-07-30T06:42:49.829Z,2664
2022-07-30T06:44:05.066Z,2684
2022-07-30T06:45:21.268Z,2692
2022-07-30T06:46:37.426Z,2640
2022-07-30T06:47:53.647Z,2596
2022-07-30T06:49:09.824Z,2572
2022-07-30T06:50:25.976Z,2568
2022-07-30T06:51:42.203Z,2536
2022-07-30T06:52:58.388Z,2516
2022-07-30T06:54:14.579Z,2476
2022-07-30T06:55:30.736Z,2404
2022-07-30T06:56:46.951Z,2420
2022-07-30T06:58:03.115Z,2440
2022-07-30T06:59:19.345Z,2428
2022-07-30T07:00:34.549Z,2432
2022-07-30T07:01:50.735Z,2404
2022-07-30T07:03:06.913Z,2380
2022-07-30T07:04:23.101Z,2388
2022-07-30T07:05:39.267Z,2420
2022-07-30T07:06:55.491Z,2460
2022-07-30T07:08:11.675Z,2508
2022-07-30T07:09:27.868Z,2544
2022-07-30T07:10:44.048Z,2584
2022-07-30T07:12:00.217Z,2632
2022-07-30T07:13:16.397Z,2684
2022-07-30T07:14:32.622Z,2724
2022-07-30T07:15:48.811Z,2752
2022-07-30T07:17:04.016Z,2784
2022-07-30T07:18:20.162Z,2804
2022-07-30T07:19:36.384Z,2800
2022-07-30T07:20:52.535Z,2804
2022-07-30T07:22:08.773Z,2800
2022-07-30T07:23:23.979Z,2800
2022-07-30T07:24:40.132Z,2832
2022-07-30T07:25:56.329Z,2904
2022-07-30T07:27:12.502Z,3004
2022-07-30T07:28:28.697Z,3116
2022-07-30T07:29:44.878Z,3220
2022-07-30T07:31:01.109Z,3316
2022-07-30T07:32:17.302Z,3372
2022-07-30T07:33:33.460Z,3404
2022-07-30T07:34:49.691Z,3408
2022-07-30T07:36:05.824Z,3436
2022-07-30T07:37:22.029Z,3488
2022-07-30T07:38:38.249Z,3512
2022-07-30T07:39:53.457Z,3548
2022-07-30T07:41:09.595Z,3588
2022-07-30T07:42:25.828Z,3644
2022-07-30T07:43:41.975Z,3692
2022-07-30T07:44:58.217Z,3744
2022-07-30T07:46:14.354Z,3780
2022-07-30T07:47:30.586Z,3776
2022-07-30T07:48:46.726Z,3776
2022-07-30T07:50:02.924Z,3748
2022-07-30T07:51:19.120Z,3748
2022-07-30T07:52:35.292Z,3764
2022-07-30T07:53:51.529Z,3796
2022-07-30T07:55:07.720Z,3796
2022-07-30T07:56:22.881Z,3876
2022-07-30T07:57:39.117Z,3944
2022-07-30T07:58:55.261Z,4024
2022-07-30T08:00:11.488Z,4060
2022-07-30T08:01:27.687Z,4088
2022-07-30T08:02:43.874Z,4096
2022-07-30T08:04:00.056Z,4116
2022-07-30T08:05:16.208Z,4104
2022-07-30T08:06:32.395Z,4076
2022-07-30T08:07:48.629Z,4012
2022-07-30T08:09:04.817Z,3980
2022-07-30T08:10:21.008Z,3964
2022-07-30T08:11:37.159Z,3972
2022-07-30T08:12:52.395Z,3992
2022-07-30T08:14:08.541Z,3984
2022-07-30T08:15:24.721Z,4024
2022-07-30T08:16:40.970Z,4088
2022-07-30T08:17:57.153Z,4096
2022-07-30T08:19:13.294Z,4076
2022-07-30T08:20:29.531Z,4108
2022-07-30T08:21:45.667Z,4148
2022-07-30T08:23:01.856Z,4200
2022-07-30T08:24:18.102Z,4204
2022-07-30T08:25:34.282Z,4200
2022-07-30T08:26:50.437Z,4200
2022-07-30T08:28:06.625Z,4236
2022-07-30T08:29:21.835Z,4252
2022-07-30T08:30:38.019Z,4256
2022-07-30T08:31:54.256Z,4216
2022-07-30T08:33:10.448Z,4228
2022-07-30T08:34:26.000Z,4256
2022-07-30T08:35:42.827Z,4280
2022-07-30T08:36:59.013Z,4284
2022-07-30T08:38:15.149Z,4316
2022-07-30T08:39:31.344Z,4336
2022-07-30T08:40:47.533Z,4332
2022-07-30T08:42:03.706Z,4280
2022-07-30T08:43:19.947Z,4256
2022-07-30T08:44:36.099Z,4228
2022-07-30T08:45:51.357Z,4256
2022-07-30T08:47:07.535Z,4320
2022-07-30T08:48:23.736Z,4468
2022-07-30T08:49:39.865Z,4532
2022-07-30T08:50:56.117Z,4588
2022-07-30T08:52:12.247Z,4588
2022-07-30T08:53:28.444Z,4596
2022-07-30T08:54:44.677Z,4656
2022-07-30T08:56:00.859Z,4768
2022-07-30T08:57:16.995Z,4892
2022-07-30T08:58:33.252Z,4964
2022-07-30T08:59:49.378Z,5000
2022-07-30T09:01:05.623Z,5024
2022-07-30T09:02:20.835Z,5052
2022-07-30T09:03:37.019Z,5076
2022-07-30T09:04:53.159Z,5108
2022-07-30T09:06:09.393Z,5148
2022-07-30T09:07:25.536Z,5188
2022-07-30T09:08:41.771Z,5252
2022-07-30T09:09:57.906Z,5248
2022-07-30T09:11:14.155Z,5228
2022-07-30T09:12:30.287Z,5216
2022-07-30T09:13:46.526Z,5172
2022-07-30T09:15:02.670Z,5156
2022-07-30T09:16:18.904Z,5180
2022-07-30T09:17:35.112Z,5228
2022-07-30T09:18:50.308Z,5272
2022-07-30T09:20:06.434Z,5340
2022-07-30T09:21:22.696Z,5356
2022-07-30T09:22:38.807Z,5388
2022-07-30T09:23:55.069Z,5420
2022-07-30T09:25:11.248Z,5440
2022-07-30T09:26:27.436Z,5488
2022-07-30T09:27:43.567Z,5484
2022-07-30T09:28:59.832Z,5440
2022-07-30T09:30:15.957Z,5348
2022-07-30T09:31:32.140Z,5308
2022-07-30T09:32:48.398Z,5280
2022-07-30T09:34:04.573Z,5292
2022-07-30T09:35:19.724Z,5332
2022-07-30T09:36:35.976Z,5364
2022-07-30T09:37:52.102Z,5344
2022-07-30T09:39:08.345Z,5288
2022-07-30T09:40:24.545Z,5172
2022-07-30T09:41:40.731Z,5036
2022-07-30T09:42:56.856Z,4988
2022-07-30T09:44:13.051Z,4964
2022-07-30T09:45:29.296Z,4964
2022-07-30T09:46:45.485Z,5020
2022-07-30T09:48:01.681Z,5024
2022-07-30T09:49:17.872Z,4968
2022-07-30T09:50:33.997Z,4892
2022-07-30T09:51:49.260Z,4808
2022-07-30T09:53:05.461Z,4720
2022-07-30T09:54:21.633Z,4668
2022-07-30T09:55:37.826Z,4640
2022-07-30T09:56:53.962Z,4628
2022-07-30T09:58:10.142Z,4656
2022-07-30T09:59:26.407Z,4724
2022-07-30T10:00:42.579Z,4736
2022-07-30T10:01:58.781Z,4756
2022-07-30T10:03:14.975Z,4772
2022-07-30T10:04:31.079Z,4688
2022-07-30T10:05:47.285Z,4596
2022-07-30T10:07:03.527Z,4584
2022-07-30T10:08:18.676Z,4608
2022-07-30T10:09:34.929Z,4612
2022-07-30T10:10:51.056Z,4564
2022-07-30T10:12:07.313Z,4656
2022-07-30T10:13:23.418Z,4840
2022-07-30T10:14:39.692Z,5136
2022-07-30T10:15:55.867Z,5448
2022-07-30T10:17:12.069Z,5828
2022-07-30T10:18:28.171Z,6188
2022-07-30T10:19:44.433Z,6408
2022-07-30T10:21:00.562Z,6588
2022-07-30T10:22:16.820Z,6724
2022-07-30T10:23:32.945Z,6780
2022-07-30T10:24:48.208Z,6828
2022-07-30T10:26:04.332Z,6832
2022-07-30T10:27:20.600Z,6868
2022-07-30T10:28:36.702Z,6872
2022-07-30T10:29:52.962Z,6852
2022-07-30T10:31:09.090Z,6904
2022-07-30T10:32:25.346Z,7024
2022-07-30T10:33:41.531Z,7104
2022-07-30T10:34:57.644Z,7112
2022-07-30T10:36:13.847Z,7076
2022-07-30T10:37:30.093Z,7076
2022-07-30T10:38:46.289Z,7148
2022-07-30T10:40:02.491Z,7200
2022-07-30T10:41:17.692Z,7184
2022-07-30T10:42:33.888Z,7104
2022-07-30T10:43:49.986Z,7020
2022-07-30T10:45:06.278Z,6924
2022-07-30T10:46:22.374Z,6904
2022-07-30T10:47:38.630Z,6756
2022-07-30T10:48:54.755Z,6688
2022-07-30T10:50:11.010Z,6668
2022-07-30T10:51:27.207Z,6564
2022-07-30T10:52:43.389Z,6376
2022-07-30T10:53:59.577Z,6232
2022-07-30T10:55:15.703Z,6192
2022-07-30T10:56:31.952Z,6168
2022-07-30T10:57:47.171Z,6072
2022-07-30T10:59:03.281Z,6024
2022-07-30T11:00:19.472Z,6020
2022-07-30T11:01:35.653Z,6068
2022-07-30T11:02:51.931Z,6092
2022-07-30T11:04:08.117Z,6060
2022-07-30T11:05:24.295Z,5976
2022-07-30T11:06:40.411Z,5864
2022-07-30T11:07:56.684Z,5872
2022-07-30T11:09:12.795Z,5788
2022-07-30T11:10:29.057Z,5804
2022-07-30T11:11:45.156Z,5764
2022-07-30T11:13:01.444Z,5844
2022-07-30T11:14:16.563Z,5996
2022-07-30T11:15:32.826Z,6032
2022-07-30T11:16:49.024Z,6028
2022-07-30T11:18:05.199Z,6128
2022-07-30T11:19:21.394Z,6300
2022-07-30T11:20:37.593Z,6596
2022-07-30T11:21:53.686Z,6968
2022-07-30T11:23:09.874Z,7224
2022-07-30T11:24:26.161Z,7416
2022-07-30T11:25:42.249Z,7364
2022-07-30T11:26:58.531Z,7460
2022-07-30T11:28:14.641Z,8128
2022-07-30T11:29:30.822Z,8220
2022-07-30T11:30:46.106Z,8132
2022-07-30T11:32:02.296Z,8072
2022-07-30T11:33:18.501Z,8236
2022-07-30T11:34:34.677Z,9228
2022-07-30T11:35:50.863Z,8820
2022-07-30T11:37:06.970Z,8296
2022-07-30T11:38:22.189Z,8112
2022-07-30T11:39:38.458Z,9364
2022-07-30T11:40:54.657Z,11404
2022-07-30T11:42:10.744Z,13064
2022-07-30T11:43:27.021Z,16808
2022-07-30T11:44:43.121Z,16332
2022-07-30T11:45:59.330Z,39456
2022-07-30T11:47:15.594Z,58112
2022-07-30T11:48:31.785Z,66944
2022-07-30T11:49:47.975Z,65344
2022-07-30T11:51:04.067Z,56064
2022-07-30T11:52:20.257Z,50016
2022-07-30T11:53:36.543Z,62208
2022-07-30T11:54:51.750Z,64832
2022-07-30T11:56:07.942Z,33408
2022-07-30T11:57:24.125Z,34464
2022-07-30T11:58:40.230Z,40864
2022-07-30T11:59:56.413Z,31936
2022-07-30T12:01:12.696Z,29184
2022-07-30T12:02:28.801Z,34368
2022-07-30T12:03:44.973Z,32576
2022-07-30T12:05:01.166Z,16688
2022-07-30T12:06:17.444Z,34592
2022-07-30T12:07:33.557Z,40128
2022-07-30T12:08:49.837Z,38944
2022-07-30T12:10:05.920Z,48256
2022-07-30T12:11:21.140Z,18012
2022-07-30T12:12:37.423Z,22432
2022-07-30T12:13:53.594Z,28000
2022-07-30T12:15:09.796Z,16228
2022-07-30T12:16:25.877Z,22080
2022-07-30T12:17:42.066Z,17136
2022-07-30T12:18:58.355Z,17636
2022-07-30T12:20:14.455Z,50976
2022-07-30T12:21:30.749Z,24672
2022-07-30T12:22:46.936Z,31488
2022-07-30T12:24:03.120Z,47008
2022-07-30T12:25:19.206Z,36416
2022-07-30T12:26:35.493Z,41120
2022-07-30T12:27:50.696Z,40480
2022-07-30T12:29:06.797Z,26368
2022-07-30T12:30:22.994Z,24960
2022-07-30T12:31:39.259Z,68000
2022-07-30T12:32:55.463Z,23040
2022-07-30T12:34:11.657Z,28928
2022-07-30T12:35:27.736Z,24096
2022-07-30T12:36:44.018Z,33888
2022-07-30T12:38:00.210Z,52960
2022-07-30T12:39:16.394Z,29632
2022-07-30T12:40:32.588Z,31392
2022-07-30T12:41:48.677Z,31392
2022-07-30T12:43:04.864Z,31744
2022-07-30T12:44:20.169Z,22432
2022-07-30T12:45:36.361Z,36832
2022-07-30T12:46:52.557Z,45760
2022-07-30T12:48:08.638Z,40992
2022-07-30T12:49:24.936Z,35872
2022-07-30T12:50:41.113Z,33184
2022-07-30T12:51:57.308Z,35744
2022-07-30T12:53:13.411Z,63648
2022-07-30T12:54:29.585Z,63712
2022-07-30T12:55:45.887Z,74112
2022-07-30T12:57:01.968Z,81312
2022-07-30T12:58:18.258Z,80416
2022-07-30T12:59:34.457Z,76384
2022-07-30T13:00:49.548Z,76192
2022-07-30T13:02:05.838Z,80320
2022-07-30T13:03:22.036Z,78496
2022-07-30T13:04:38.224Z,83456
2022-07-30T13:05:54.405Z,78848
2022-07-30T13:07:10.492Z,71104
2022-07-30T13:08:26.689Z,75200
2022-07-30T13:09:42.986Z,79360
2022-07-30T13:10:59.180Z,77760
2022-07-30T13:12:15.350Z,80672
2022-07-30T13:13:31.451Z,70688
2022-07-30T13:14:47.633Z,43552
2022-07-30T13:16:03.823Z,51648
2022-07-30T13:17:19.142Z,48768
2022-07-30T13:18:35.226Z,27552
2022-07-30T13:19:51.516Z,43072
2022-07-30T13:21:07.700Z,55488
2022-07-30T13:22:23.896Z,37024
2022-07-30T13:23:40.084Z,24288
2022-07-30T13:24:56.259Z,33024
2022-07-30T13:26:12.362Z,60128
2022-07-30T13:27:28.647Z,65952
2022-07-30T13:28:44.833Z,79552
2022-07-30T13:30:01.033Z,80928
2022-07-30T13:31:17.219Z,65056
2022-07-30T13:32:33.294Z,26304
2022-07-30T13:33:48.506Z,8076
2022-07-30T13:35:04.799Z,47200
2022-07-30T13:36:20.996Z,65376
2022-07-30T13:37:37.169Z,65344
2022-07-30T13:38:53.266Z,58272
2022-07-30T13:40:09.444Z,69568
2022-07-30T13:41:25.644Z,60736
2022-07-30T13:42:41.944Z,53600
2022-07-30T13:43:58.117Z,59008
2022-07-30T13:45:14.309Z,41664
2022-07-30T13:46:30.496Z,28448
2022-07-30T13:47:46.697Z,25056
2022-07-30T13:49:02.777Z,61312
2022-07-30T13:50:18.080Z,57856
2022-07-30T13:51:34.282Z,73952
2022-07-30T13:52:50.364Z,81344
2022-07-30T13:54:06.545Z,81984
2022-07-30T13:55:22.840Z,81056
2022-07-30T13:56:39.039Z,82176
2022-07-30T13:57:55.112Z,81696
2022-07-30T13:59:11.306Z,80288
2022-07-30T14:00:27.596Z,22528
2022-07-30T14:01:43.677Z,66720
2022-07-30T14:02:59.980Z,81088
2022-07-30T14:04:16.160Z,77600
2022-07-30T14:05:32.354Z,78688
2022-07-30T14:06:47.574Z,78528
2022-07-30T14:08:03.753Z,77536
2022-07-30T14:09:19.831Z,71264
2022-07-30T14:10:36.140Z,69568
2022-07-30T14:11:52.318Z,68736
2022-07-30T14:13:08.509Z,72320
2022-07-30T14:14:24.709Z,34848
2022-07-30T14:15:40.890Z,57088
2022-07-30T14:16:56.956Z,5284
2022-07-30T14:18:13.272Z,67904
2022-07-30T14:19:29.463Z,42752
2022-07-30T14:20:45.535Z,67200
2022-07-30T14:22:01.716Z,67488
2022-07-30T14:23:16.916Z,65120
2022-07-30T14:24:33.241Z,65728
2022-07-30T14:25:49.308Z,65312
2022-07-30T14:27:05.610Z,65184
2022-07-30T14:28:21.804Z,60448
2022-07-30T14:29:37.866Z,42624
2022-07-30T14:30:54.061Z,17856
2022-07-30T14:32:10.373Z,13452
2022-07-30T14:33:26.557Z,12288
2022-07-30T14:34:42.740Z,9356
2022-07-30T14:35:58.814Z,8320
2022-07-30T14:37:15.120Z,13544
2022-07-30T14:38:31.305Z,11956
2022-07-30T14:39:46.406Z,6240
2022-07-30T14:41:02.716Z,10256
2022-07-30T14:42:18.895Z,9780
2022-07-30T14:43:35.082Z,9660
2022-07-30T14:44:51.273Z,9776
2022-07-30T14:46:07.468Z,9684
2022-07-30T14:47:23.657Z,9944
2022-07-30T14:48:39.841Z,7912
2022-07-30T14:49:55.906Z,5780
2022-07-30T14:51:12.235Z,4772
2022-07-30T14:52:28.289Z,8604
2022-07-30T14:53:44.603Z,4084
2022-07-30T14:55:00.795Z,6344
2022-07-30T14:56:16.004Z,9508
2022-07-30T14:57:32.192Z,9448
2022-07-30T14:58:48.368Z,4596
2022-07-30T15:00:04.562Z,3132
2022-07-30T15:01:20.635Z,2820
2022-07-30T15:03:53.137Z,7128
2022-07-30T15:05:09.203Z,5632
2022-07-30T15:06:25.504Z,9120
2022-07-30T15:07:41.712Z,5204
2022-07-30T15:08:57.759Z,3900
2022-07-30T15:10:13.947Z,8628
2022-07-30T15:11:30.263Z,8716
2022-07-30T15:12:45.468Z,8344
2022-07-30T15:14:01.543Z,8116
2022-07-30T15:15:17.860Z,8052
2022-07-30T15:16:34.051Z,7956
2022-07-30T15:17:50.097Z,8012
2022-07-30T15:19:06.421Z,8060
2022-07-30T15:20:22.619Z,8156
2022-07-30T15:21:38.809Z,7972
2022-07-30T15:22:55.000Z,7964
2022-07-30T15:24:11.183Z,8312
2022-07-30T15:25:27.243Z,8400
2022-07-30T15:26:43.561Z,8356
2022-07-30T15:27:59.619Z,8388
2022-07-30T15:29:14.948Z,8196
2022-07-30T15:30:31.154Z,8144
2022-07-30T15:31:47.338Z,8268
2022-07-30T15:33:03.381Z,7176
2022-07-30T15:34:19.706Z,3484
2022-07-30T15:35:35.903Z,3980
2022-07-30T15:36:52.089Z,8596
2022-07-30T15:38:08.286Z,4880
2022-07-30T15:39:24.477Z,6340
2022-07-30T15:40:40.663Z,7944
2022-07-30T15:41:56.847Z,7572
2022-07-30T15:43:13.038Z,7348
2022-07-30T15:44:29.217Z,7340
2022-07-30T15:45:44.433Z,7272
2022-07-30T15:47:00.626Z,7272
2022-07-30T15:48:16.684Z,7284
2022-07-30T15:49:33.010Z,7240
2022-07-30T15:50:49.056Z,7308
2022-07-30T15:52:05.385Z,7688
2022-07-30T15:53:20.457Z,7988
2022-07-30T15:54:36.777Z,7664
2022-07-30T15:55:52.959Z,7104
2022-07-30T15:57:09.145Z,6160
2022-07-30T15:58:25.345Z,5164
2022-07-30T15:59:41.521Z,4444
2022-07-30T16:00:57.573Z,3908
2022-07-30T16:02:13.898Z,3544
2022-07-30T16:03:29.954Z,3096
2022-07-30T16:04:46.152Z,2832
2022-07-30T16:06:02.336Z,2536
2022-07-30T16:07:18.649Z,2368
2022-07-30T16:08:34.696Z,2272
2022-07-30T16:09:50.050Z,2192
2022-07-30T16:11:06.092Z,2084
2022-07-30T16:12:22.424Z,2012
2022-07-30T16:13:38.475Z,2048
2022-07-30T16:14:54.804Z,2088
2022-07-30T16:16:10.990Z,1956
2022-07-30T16:17:27.023Z,1932
2022-07-30T16:18:43.367Z,1816
2022-07-30T16:19:59.554Z,1680
2022-07-30T16:21:15.736Z,1612
2022-07-30T16:22:31.916Z,1576
2022-07-30T16:23:48.104Z,1544
2022-07-30T16:25:04.289Z,1520
2022-07-30T16:26:19.363Z,1504
2022-07-30T16:27:35.698Z,1492
2022-07-30T16:28:51.733Z,1484
2022-07-30T16:30:08.065Z,1472
2022-07-30T16:31:24.104Z,1456
2022-07-30T16:32:40.441Z,1436
2022-07-30T16:33:56.628Z,1420
2022-07-30T16:35:12.809Z,1400
2022-07-30T16:36:29.012Z,1384
2022-07-30T16:37:45.189Z,1372
2022-07-30T16:39:01.370Z,1360
2022-07-30T16:40:17.569Z,1348
2022-07-30T16:41:33.606Z,1336
2022-07-30T16:42:48.805Z,1324
2022-07-30T16:44:05.003Z,1312
2022-07-30T16:45:21.327Z,1296
2022-07-30T16:46:37.521Z,1280
2022-07-30T16:47:53.707Z,1268
2022-07-30T16:49:09.746Z,1256
2022-07-30T16:50:26.090Z,1244
2022-07-30T16:51:42.261Z,1232
2022-07-30T16:52:58.453Z,1220
2022-07-30T16:54:14.655Z,1208
2022-07-30T16:55:30.678Z,1192
2022-07-30T16:56:46.878Z,1188
2022-07-30T16:58:03.206Z,1176
2022-07-30T16:59:18.270Z,1168
2022-07-30T17:00:34.598Z,1156
2022-07-30T17:01:50.778Z,1152
2022-07-30T17:03:06.818Z,1148
2022-07-30T17:04:23.014Z,1140
2022-07-30T17:05:39.349Z,1124
2022-07-30T17:06:55.528Z,1112
2022-07-30T17:08:11.715Z,1108
2022-07-30T17:09:27.915Z,1104
2022-07-30T17:10:44.092Z,1092
2022-07-30T17:12:00.132Z,1088